sensor_id;sensor_type;location;lat;lon;timestamp;pressure;altitude;pressure_sealevel;temperature;humidity
72587;BME280;60621;49.576;11.024;2023-05-13T00:00:03;98461.00;;;10.80;72.29
72587;BME280;60621;49.576;11.024;2023-05-13T00:01:06;98468.09;;;10.76;72.14
72587;BME280;60621;49.576;11.024;2023-05-13T00:02:07;98466.59;;;10.56;72.77
72587;BME280;60621;49.576;11.024;2023-05-13T00:03:09;98462.38;;;10.51;73.22
72587;BME280;60621;49.576;11.024;2023-05-13T00:04:11;98461.91;;;10.45;73.21
72587;BME280;60621;49.576;11.024;2023-05-13T00:05:13;98468.97;;;10.41;73.61
72587;BME280;60621;49.576;11.024;2023-05-13T00:06:14;98465.91;;;10.39;73.36
72587;BME280;60621;49.576;11.024;2023-05-13T00:07:16;98465.44;;;10.34;74.19
72587;BME280;60621;49.576;11.024;2023-05-13T00:08:17;98465.03;;;10.32;74.18
72587;BME280;60621;49.576;11.024;2023-05-13T00:09:20;98464.38;;;10.38;74.29
72587;BME280;60621;49.576;11.024;2023-05-13T00:10:23;98466.69;;;10.40;74.12
72587;BME280;60621;49.576;11.024;2023-05-13T00:11:25;98462.59;;;10.42;74.32
72587;BME280;60621;49.576;11.024;2023-05-13T00:12:27;98453.56;;;10.43;73.88
72587;BME280;60621;49.576;11.024;2023-05-13T00:13:28;98465.91;;;10.39;74.55
72587;BME280;60621;49.576;11.024;2023-05-13T00:14:30;98451.97;;;10.39;74.59
72587;BME280;60621;49.576;11.024;2023-05-13T00:15:32;98456.00;;;10.33;74.76
72587;BME280;60621;49.576;11.024;2023-05-13T00:16:33;98460.38;;;10.25;75.02
72587;BME280;60621;49.576;11.024;2023-05-13T00:17:35;98454.84;;;10.14;75.10
72587;BME280;60621;49.576;11.024;2023-05-13T00:18:36;98457.00;;;10.09;75.08
72587;BME280;60621;49.576;11.024;2023-05-13T00:19:38;98454.78;;;10.11;75.61
72587;BME280;60621;49.576;11.024;2023-05-13T00:20:40;98447.31;;;10.13;75.32
72587;BME280;60621;49.576;11.024;2023-05-13T00:21:41;98445.84;;;10.15;75.82
72587;BME280;60621;49.576;11.024;2023-05-13T00:22:43;98447.66;;;10.11;75.50
72587;BME280;60621;49.576;11.024;2023-05-13T00:23:44;98447.91;;;10.06;76.17
72587;BME280;60621;49.576;11.024;2023-05-13T00:24:46;98450.91;;;10.05;75.84
72587;BME280;60621;49.576;11.024;2023-05-13T00:25:47;98455.91;;;10.10;75.79
72587;BME280;60621;49.576;11.024;2023-05-13T00:26:49;98444.53;;;10.06;75.75
72587;BME280;60621;49.576;11.024;2023-05-13T00:27:50;98445.72;;;10.08;75.81
72587;BME280;60621;49.576;11.024;2023-05-13T00:28:52;98446.59;;;9.96;75.66
72587;BME280;60621;49.576;11.024;2023-05-13T00:29:53;98447.88;;;10.03;76.30
72587;BME280;60621;49.576;11.024;2023-05-13T00:30:55;98453.53;;;10.05;75.68
72587;BME280;60621;49.576;11.024;2023-05-13T00:31:57;98446.28;;;9.98;76.31
72587;BME280;60621;49.576;11.024;2023-05-13T00:32:58;98451.94;;;10.00;76.22
72587;BME280;60621;49.576;11.024;2023-05-13T00:34:00;98445.91;;;9.99;76.08
72587;BME280;60621;49.576;11.024;2023-05-13T00:35:02;98455.28;;;9.97;75.84
72587;BME280;60621;49.576;11.024;2023-05-13T00:36:04;98449.75;;;10.02;75.75
72587;BME280;60621;49.576;11.024;2023-05-13T00:37:06;98453.97;;;10.07;75.38
72587;BME280;60621;49.576;11.024;2023-05-13T00:38:10;98450.50;;;10.03;75.05
72587;BME280;60621;49.576;11.024;2023-05-13T00:39:12;98452.69;;;10.00;75.97
72587;BME280;60621;49.576;11.024;2023-05-13T00:40:22;98449.03;;;10.05;75.29
72587;BME280;60621;49.576;11.024;2023-05-13T00:41:24;98458.41;;;10.03;75.01
72587;BME280;60621;49.576;11.024;2023-05-13T00:42:26;98457.28;;;10.04;75.13
72587;BME280;60621;49.576;11.024;2023-05-13T00:43:28;98452.50;;;10.09;74.89
72587;BME280;60621;49.576;11.024;2023-05-13T00:44:30;98463.72;;;10.06;75.05
72587;BME280;60621;49.576;11.024;2023-05-13T00:45:31;98457.41;;;10.11;75.34
72587;BME280;60621;49.576;11.024;2023-05-13T00:46:33;98458.81;;;10.05;75.30
72587;BME280;60621;49.576;11.024;2023-05-13T00:47:35;98453.34;;;9.94;75.24
72587;BME280;60621;49.576;11.024;2023-05-13T00:48:37;98452.69;;;10.00;74.84
72587;BME280;60621;49.576;11.024;2023-05-13T00:49:38;98447.91;;;10.06;74.73
72587;BME280;60621;49.576;11.024;2023-05-13T00:50:40;98455.91;;;10.10;74.57
72587;BME280;60621;49.576;11.024;2023-05-13T00:51:44;98450.63;;;10.10;74.52
72587;BME280;60621;49.576;11.024;2023-05-13T00:52:47;98456.94;;;10.05;74.19
72587;BME280;60621;49.576;11.024;2023-05-13T00:53:50;98451.19;;;9.99;74.46
72587;BME280;60621;49.576;11.024;2023-05-13T00:54:52;98459.38;;;9.94;74.43
72587;BME280;60621;49.576;11.024;2023-05-13T00:55:53;98449.72;;;9.83;74.70
72587;BME280;60621;49.576;11.024;2023-05-13T00:56:55;98448.53;;;9.80;74.83
72587;BME280;60621;49.576;11.024;2023-05-13T00:57:57;98446.66;;;9.81;74.91
72587;BME280;60621;49.576;11.024;2023-05-13T00:58:58;98449.78;;;9.86;75.14
72587;BME280;60621;49.576;11.024;2023-05-13T01:00:00;98444.94;;;9.88;74.33
72587;BME280;60621;49.576;11.024;2023-05-13T01:01:12;98447.31;;;9.93;74.24
72587;BME280;60621;49.576;11.024;2023-05-13T01:02:34;98448.63;;;9.84;74.67
72587;BME280;60621;49.576;11.024;2023-05-13T01:03:55;98448.03;;;9.74;75.59
72587;BME280;60621;49.576;11.024;2023-05-13T01:05:14;98451.56;;;9.82;75.36
72587;BME280;60621;49.576;11.024;2023-05-13T01:10:43;98454.75;;;9.72;75.97
72587;BME280;60621;49.576;11.024;2023-05-13T01:11:48;98453.31;;;9.74;74.85
72587;BME280;60621;49.576;11.024;2023-05-13T01:12:55;98456.13;;;9.66;75.20
72587;BME280;60621;49.576;11.024;2023-05-13T01:14:21;98454.31;;;9.51;75.79
72587;BME280;60621;49.576;11.024;2023-05-13T01:15:25;98459.97;;;9.53;76.12
72587;BME280;60621;49.576;11.024;2023-05-13T01:16:34;98461.50;;;9.54;75.09
72587;BME280;60621;49.576;11.024;2023-05-13T01:17:48;98460.59;;;9.46;75.81
72587;BME280;60621;49.576;11.024;2023-05-13T01:20:22;98465.41;;;9.44;75.81
72587;BME280;60621;49.576;11.024;2023-05-13T01:21:25;98466.28;;;9.48;75.57
72587;BME280;60621;49.576;11.024;2023-05-13T01:22:27;98463.38;;;9.53;75.41
72587;BME280;60621;49.576;11.024;2023-05-13T01:23:29;98470.16;;;9.54;75.28
72587;BME280;60621;49.576;11.024;2023-05-13T01:24:30;98475.09;;;9.56;75.05
72587;BME280;60621;49.576;11.024;2023-05-13T01:25:32;98463.06;;;9.55;75.48
72587;BME280;60621;49.576;11.024;2023-05-13T01:26:34;98468.31;;;9.55;75.39
72587;BME280;60621;49.576;11.024;2023-05-13T01:27:35;98462.59;;;9.53;75.21
72587;BME280;60621;49.576;11.024;2023-05-13T01:28:37;98476.13;;;9.51;75.44
72587;BME280;60621;49.576;11.024;2023-05-13T01:29:38;98467.28;;;9.43;75.51
72587;BME280;60621;49.576;11.024;2023-05-13T01:30:41;98467.72;;;9.45;75.19
72587;BME280;60621;49.576;11.024;2023-05-13T01:31:44;98470.09;;;9.51;75.22
72587;BME280;60621;49.576;11.024;2023-05-13T01:32:47;98477.75;;;9.56;75.29
72587;BME280;60621;49.576;11.024;2023-05-13T01:33:50;98469.91;;;9.59;75.24
72587;BME280;60621;49.576;11.024;2023-05-13T01:34:52;98469.84;;;9.56;75.42
72587;BME280;60621;49.576;11.024;2023-05-13T01:35:55;98473.16;;;9.53;75.04
72587;BME280;60621;49.576;11.024;2023-05-13T01:36:58;98473.41;;;9.47;75.57
72587;BME280;60621;49.576;11.024;2023-05-13T01:38:01;98475.94;;;9.44;75.32
72587;BME280;60621;49.576;11.024;2023-05-13T01:39:03;98475.94;;;9.44;75.99
72587;BME280;60621;49.576;11.024;2023-05-13T01:40:05;98469.66;;;9.48;75.68
72587;BME280;60621;49.576;11.024;2023-05-13T01:41:20;98478.06;;;9.54;75.44
72587;BME280;60621;49.576;11.024;2023-05-13T01:42:22;98480.28;;;9.52;75.46
72587;BME280;60621;49.576;11.024;2023-05-13T01:43:24;98471.22;;;9.49;75.46
72587;BME280;60621;49.576;11.024;2023-05-13T01:44:26;98471.38;;;9.41;75.41
72587;BME280;60621;49.576;11.024;2023-05-13T01:45:28;98470.19;;;9.38;76.71
72587;BME280;60621;49.576;11.024;2023-05-13T01:46:30;98473.94;;;9.37;76.63
72587;BME280;60621;49.576;11.024;2023-05-13T01:47:32;98470.53;;;9.37;75.96
72587;BME280;60621;49.576;11.024;2023-05-13T01:48:33;98474.34;;;9.39;76.19
72587;BME280;60621;49.576;11.024;2023-05-13T01:49:35;98478.94;;;9.42;76.22
72587;BME280;60621;49.576;11.024;2023-05-13T01:50:36;98470.38;;;9.45;75.83
72587;BME280;60621;49.576;11.024;2023-05-13T01:51:38;98471.22;;;9.49;76.00
72587;BME280;60621;49.576;11.024;2023-05-13T01:52:41;98471.97;;;9.50;75.49
72587;BME280;60621;49.576;11.024;2023-05-13T01:53:43;98468.31;;;9.55;75.45
72587;BME280;60621;49.576;11.024;2023-05-13T01:54:44;98467.19;;;9.56;75.43
72587;BME280;60621;49.576;11.024;2023-05-13T01:55:46;98465.94;;;9.49;75.39
72587;BME280;60621;49.576;11.024;2023-05-13T01:56:47;98466.84;;;9.57;75.00
72587;BME280;60621;49.576;11.024;2023-05-13T01:57:49;98472.97;;;9.61;74.25
72587;BME280;60621;49.576;11.024;2023-05-13T01:58:51;98471.53;;;9.64;74.25
72587;BME280;60621;49.576;11.024;2023-05-13T01:59:52;98463.28;;;9.65;73.84
72587;BME280;60621;49.576;11.024;2023-05-13T02:00:54;98464.88;;;9.70;73.72
72587;BME280;60621;49.576;11.024;2023-05-13T02:01:55;98466.81;;;9.73;73.27
72587;BME280;60621;49.576;11.024;2023-05-13T02:02:57;98469.03;;;9.71;73.62
72587;BME280;60621;49.576;11.024;2023-05-13T02:03:59;98464.97;;;9.73;74.13
72587;BME280;60621;49.576;11.024;2023-05-13T02:05:01;98464.53;;;9.71;73.78
72587;BME280;60621;49.576;11.024;2023-05-13T02:06:02;98465.63;;;9.70;73.55
72587;BME280;60621;49.576;11.024;2023-05-13T02:07:04;98464.88;;;9.70;74.08
72587;BME280;60621;49.576;11.024;2023-05-13T02:08:07;98471.31;;;9.72;73.90
72587;BME280;60621;49.576;11.024;2023-05-13T02:09:09;98463.84;;;9.74;73.53
72587;BME280;60621;49.576;11.024;2023-05-13T02:10:11;98468.34;;;9.74;73.59
72587;BME280;60621;49.576;11.024;2023-05-13T02:11:13;98465.28;;;9.72;73.96
72587;BME280;60621;49.576;11.024;2023-05-13T02:12:15;98467.66;;;9.77;73.63
72587;BME280;60621;49.576;11.024;2023-05-13T02:13:16;98475.28;;;9.82;73.05
72587;BME280;60621;49.576;11.024;2023-05-13T02:14:18;98466.69;;;9.85;73.06
72587;BME280;60621;49.576;11.024;2023-05-13T02:15:20;98469.41;;;9.89;73.00
72587;BME280;60621;49.576;11.024;2023-05-13T02:16:22;98467.53;;;9.89;73.14
72587;BME280;60621;49.576;11.024;2023-05-13T02:17:24;98468.47;;;9.97;73.20
72587;BME280;60621;49.576;11.024;2023-05-13T02:18:26;98463.25;;;10.00;72.93
72587;BME280;60621;49.576;11.024;2023-05-13T02:19:28;98467.91;;;10.07;72.50
72587;BME280;60621;49.576;11.024;2023-05-13T02:20:29;98470.56;;;10.07;71.82
72587;BME280;60621;49.576;11.024;2023-05-13T02:21:31;98463.47;;;10.11;72.32
72587;BME280;60621;49.576;11.024;2023-05-13T02:22:33;98468.81;;;10.15;71.74
72587;BME280;60621;49.576;11.024;2023-05-13T02:23:34;98470.31;;;10.16;72.72
72587;BME280;60621;49.576;11.024;2023-05-13T02:24:36;98471.16;;;10.20;72.49
72587;BME280;60621;49.576;11.024;2023-05-13T02:25:40;98462.25;;;10.24;72.20
72587;BME280;60621;49.576;11.024;2023-05-13T02:26:42;98471.34;;;10.27;72.42
72587;BME280;60621;49.576;11.024;2023-05-13T02:27:45;98466.44;;;10.25;72.77
72587;BME280;60621;49.576;11.024;2023-05-13T02:28:47;98466.31;;;10.22;73.13
72587;BME280;60621;49.576;11.024;2023-05-13T02:29:48;98471.69;;;10.25;72.93
72587;BME280;60621;49.576;11.024;2023-05-13T02:30:50;98473.63;;;10.29;72.63
72587;BME280;60621;49.576;11.024;2023-05-13T02:31:52;98464.25;;;10.31;72.63
72587;BME280;60621;49.576;11.024;2023-05-13T02:32:54;98471.75;;;10.29;72.49
72587;BME280;60621;49.576;11.024;2023-05-13T02:33:56;98471.41;;;10.31;72.50
72587;BME280;60621;49.576;11.024;2023-05-13T02:34:58;98471.06;;;10.32;72.72
72587;BME280;60621;49.576;11.024;2023-05-13T02:35:59;98469.53;;;10.31;73.05
72587;BME280;60621;49.576;11.024;2023-05-13T02:37:02;98468.06;;;10.34;72.42
72587;BME280;60621;49.576;11.024;2023-05-13T02:38:04;98471.47;;;10.34;72.34
72587;BME280;60621;49.576;11.024;2023-05-13T02:39:06;98472.22;;;10.35;72.36
72587;BME280;60621;49.576;11.024;2023-05-13T02:40:08;98471.47;;;10.34;72.76
72587;BME280;60621;49.576;11.024;2023-05-13T02:41:10;98474.06;;;10.31;73.13
72587;BME280;60621;49.576;11.024;2023-05-13T02:42:11;98468.81;;;10.34;73.00
72587;BME280;60621;49.576;11.024;2023-05-13T02:43:13;98468.13;;;10.37;72.83
72587;BME280;60621;49.576;11.024;2023-05-13T02:44:15;98463.97;;;10.36;73.26
72587;BME280;60621;49.576;11.024;2023-05-13T02:45:16;98468.50;;;10.36;73.74
72587;BME280;60621;49.576;11.024;2023-05-13T02:46:18;98470.03;;;10.37;73.67
72587;BME280;60621;49.576;11.024;2023-05-13T02:47:19;98467.03;;;10.38;74.00
72587;BME280;60621;49.576;11.024;2023-05-13T02:48:21;98463.97;;;10.36;73.80
72587;BME280;60621;49.576;11.024;2023-05-13T02:49:23;98471.53;;;10.38;74.26
72587;BME280;60621;49.576;11.024;2023-05-13T02:50:25;98469.75;;;10.42;74.21
72587;BME280;60621;49.576;11.024;2023-05-13T02:51:26;98471.25;;;10.43;73.85
72587;BME280;60621;49.576;11.024;2023-05-13T02:52:28;98462.59;;;10.42;73.96
72587;BME280;60621;49.576;11.024;2023-05-13T02:53:29;98475.09;;;10.45;74.03
72587;BME280;60621;49.576;11.024;2023-05-13T02:54:31;98463.34;;;10.43;74.05
72587;BME280;60621;49.576;11.024;2023-05-13T02:55:32;98469.94;;;10.33;73.79
72587;BME280;60621;49.576;11.024;2023-05-13T02:56:34;98462.47;;;10.35;74.04
72587;BME280;60621;49.576;11.024;2023-05-13T02:57:36;98462.47;;;10.35;73.40
72587;BME280;60621;49.576;11.024;2023-05-13T02:58:38;98463.22;;;10.36;73.97
72587;BME280;60621;49.576;11.024;2023-05-13T02:59:39;98466.91;;;10.31;73.54
72587;BME280;60621;49.576;11.024;2023-05-13T03:00:41;98471.75;;;10.29;73.60
72587;BME280;60621;49.576;11.024;2023-05-13T03:01:43;98471.34;;;10.27;73.72
72587;BME280;60621;49.576;11.024;2023-05-13T03:02:45;98470.22;;;10.28;73.97
72587;BME280;60621;49.576;11.024;2023-05-13T03:03:46;98472.88;;;10.28;74.02
72587;BME280;60621;49.576;11.024;2023-05-13T03:04:48;98471.41;;;10.31;73.81
72587;BME280;60621;49.576;11.024;2023-05-13T03:05:50;98473.25;;;10.30;73.23
72587;BME280;60621;49.576;11.024;2023-05-13T03:06:51;98471.25;;;10.23;73.82
72587;BME280;60621;49.576;11.024;2023-05-13T03:07:53;98469.81;;;10.26;73.82
72587;BME280;60621;49.576;11.024;2023-05-13T03:08:54;98476.63;;;10.27;73.65
72587;BME280;60621;49.576;11.024;2023-05-13T03:09:56;98473.13;;;10.23;73.52
72587;BME280;60621;49.576;11.024;2023-05-13T03:10:58;98473.78;;;10.20;73.87
72587;BME280;60621;49.576;11.024;2023-05-13T03:11:59;98474.66;;;10.24;74.05
72587;BME280;60621;49.576;11.024;2023-05-13T03:13:01;98475.00;;;10.22;73.80
72587;BME280;60621;49.576;11.024;2023-05-13T03:14:02;98477.47;;;10.15;73.68
72587;BME280;60621;49.576;11.024;2023-05-13T03:15:05;98471.88;;;10.17;74.60
72587;BME280;60621;49.576;11.024;2023-05-13T03:16:07;98480.19;;;10.19;74.44
72587;BME280;60621;49.576;11.024;2023-05-13T03:17:09;98483.50;;;10.16;74.61
72587;BME280;60621;49.576;11.024;2023-05-13T03:18:10;98478.22;;;10.16;74.49
72587;BME280;60621;49.576;11.024;2023-05-13T03:19:12;98477.81;;;10.14;74.29
72587;BME280;60621;49.576;11.024;2023-05-13T03:20:14;98480.09;;;10.15;74.40
72587;BME280;60621;49.576;11.024;2023-05-13T03:21:15;98474.84;;;10.15;74.48
72587;BME280;60621;49.576;11.024;2023-05-13T03:22:17;98480.19;;;10.19;74.27
72587;BME280;60621;49.576;11.024;2023-05-13T03:23:18;98477.97;;;10.21;74.27
72587;BME280;60621;49.576;11.024;2023-05-13T03:24:20;98479.06;;;10.20;74.26
72587;BME280;60621;49.576;11.024;2023-05-13T03:25:21;98474.50;;;10.17;73.88
72587;BME280;60621;49.576;11.024;2023-05-13T03:26:23;98485.31;;;10.12;74.11
72587;BME280;60621;49.576;11.024;2023-05-13T03:27:24;98476.91;;;10.06;75.00
72587;BME280;60621;49.576;11.024;2023-05-13T03:28:26;98480.38;;;10.10;74.85
72587;BME280;60621;49.576;11.024;2023-05-13T03:29:27;98488.78;;;10.16;74.58
72587;BME280;60621;49.576;11.024;2023-05-13T03:30:29;98481.66;;;10.16;74.61
72587;BME280;60621;49.576;11.024;2023-05-13T03:31:31;98484.34;;;10.20;74.63
72587;BME280;60621;49.576;11.024;2023-05-13T03:32:33;98488.44;;;10.17;74.96
72587;BME280;60621;49.576;11.024;2023-05-13T03:33:35;98486.28;;;10.23;75.32
72587;BME280;60621;49.576;11.024;2023-05-13T03:34:37;98490.91;;;10.26;74.86
72587;BME280;60621;49.576;11.024;2023-05-13T03:35:38;98486.44;;;10.30;74.87
72587;BME280;60621;49.576;11.024;2023-05-13T03:36:40;98490.03;;;10.22;74.99
72587;BME280;60621;49.576;11.024;2023-05-13T03:37:42;98490.91;;;10.26;75.57
72587;BME280;60621;49.576;11.024;2023-05-13T03:38:43;98486.03;;;10.28;75.12
72587;BME280;60621;49.576;11.024;2023-05-13T03:39:45;98490.63;;;10.31;74.86
72587;BME280;60621;49.576;11.024;2023-05-13T03:40:46;98489.88;;;10.31;74.82
72587;BME280;60621;49.576;11.024;2023-05-13T03:41:48;98484.59;;;10.31;74.66
72587;BME280;60621;49.576;11.024;2023-05-13T03:42:49;98488.75;;;10.32;75.05
72587;BME280;60621;49.576;11.024;2023-05-13T03:43:51;98486.03;;;10.28;74.76
72587;BME280;60621;49.576;11.024;2023-05-13T03:44:52;98494.63;;;10.25;74.90
72587;BME280;60621;49.576;11.024;2023-05-13T03:45:54;98486.97;;;10.20;75.09
72587;BME280;60621;49.576;11.024;2023-05-13T03:46:56;98488.59;;;10.24;75.52
72587;BME280;60621;49.576;11.024;2023-05-13T03:47:57;98493.44;;;10.22;75.20
72587;BME280;60621;49.576;11.024;2023-05-13T03:48:59;98489.69;;;10.23;75.28
72587;BME280;60621;49.576;11.024;2023-05-13T03:50:00;98487.34;;;10.18;75.06
72587;BME280;60621;49.576;11.024;2023-05-13T03:51:02;98487.84;;;10.24;75.19
72587;BME280;60621;49.576;11.024;2023-05-13T03:52:04;98490.63;;;10.31;75.02
72587;BME280;60621;49.576;11.024;2023-05-13T03:53:09;98491.78;;;10.34;74.75
72587;BME280;60621;49.576;11.024;2023-05-13T03:54:11;98494.16;;;10.39;74.10
72587;BME280;60621;49.576;11.024;2023-05-13T03:55:13;98492.16;;;10.32;73.87
72587;BME280;60621;49.576;11.024;2023-05-13T03:56:15;98488.84;;;10.35;73.75
72587;BME280;60621;49.576;11.024;2023-05-13T03:57:17;98490.06;;;10.41;73.68
72587;BME280;60621;49.576;11.024;2023-05-13T03:58:18;98492.03;;;10.44;73.55
72587;BME280;60621;49.576;11.024;2023-05-13T03:59:21;98496.59;;;10.47;73.72
72587;BME280;60621;49.576;11.024;2023-05-13T04:00:24;98503.44;;;10.52;73.22
72587;BME280;60621;49.576;11.024;2023-05-13T04:01:26;98494.78;;;10.51;72.58
72587;BME280;60621;49.576;11.024;2023-05-13T04:02:27;98496.88;;;10.42;72.22
72587;BME280;60621;49.576;11.024;2023-05-13T04:03:29;98497.31;;;10.44;72.47
72587;BME280;60621;49.576;11.024;2023-05-13T04:04:31;98506.78;;;10.49;72.32
72587;BME280;60621;49.576;11.024;2023-05-13T04:05:33;98501.56;;;10.52;72.12
72587;BME280;60621;49.576;11.024;2023-05-13T04:06:34;98498.81;;;10.45;72.14
72587;BME280;60621;49.576;11.024;2023-05-13T04:07:36;98494.72;;;10.48;72.54
72587;BME280;60621;49.576;11.024;2023-05-13T04:08:37;98508.66;;;10.48;72.20
72587;BME280;60621;49.576;11.024;2023-05-13T04:09:39;98505.97;;;10.45;72.22
72587;BME280;60621;49.576;11.024;2023-05-13T04:10:40;98498.06;;;10.45;72.50
72587;BME280;60621;49.576;11.024;2023-05-13T04:11:42;98496.94;;;10.46;72.48
72587;BME280;60621;49.576;11.024;2023-05-13T04:12:43;98500.75;;;10.48;72.63
72587;BME280;60621;49.576;11.024;2023-05-13T04:13:45;98498.75;;;10.42;72.75
72587;BME280;60621;49.576;11.024;2023-05-13T04:14:46;98501.78;;;10.44;72.69
72587;BME280;60621;49.576;11.024;2023-05-13T04:15:48;98495.72;;;10.40;72.83
72587;BME280;60621;49.576;11.024;2023-05-13T04:16:49;98502.06;;;10.39;72.84
72587;BME280;60621;49.576;11.024;2023-05-13T04:17:51;98495.34;;;10.41;72.80
72587;BME280;60621;49.576;11.024;2023-05-13T04:18:54;98502.63;;;10.48;72.78
72587;BME280;60621;49.576;11.024;2023-05-13T04:19:55;98506.03;;;10.48;72.56
72587;BME280;60621;49.576;11.024;2023-05-13T04:20:57;98497.50;;;10.55;72.36
72587;BME280;60621;49.576;11.024;2023-05-13T04:21:58;98502.41;;;10.57;72.71
72587;BME280;60621;49.576;11.024;2023-05-13T04:23:00;98497.56;;;10.59;72.45
72587;BME280;60621;49.576;11.024;2023-05-13T04:24:02;98498.25;;;10.56;72.90
72587;BME280;60621;49.576;11.024;2023-05-13T04:25:03;98506.66;;;10.61;72.51
72587;BME280;60621;49.576;11.024;2023-05-13T04:26:05;98507.31;;;10.58;72.28
72587;BME280;60621;49.576;11.024;2023-05-13T04:27:07;98509.63;;;10.60;72.12
72587;BME280;60621;49.576;11.024;2023-05-13T04:28:08;98507.41;;;10.62;71.78
72587;BME280;60621;49.576;11.024;2023-05-13T04:29:10;98506.72;;;10.65;72.21
72587;BME280;60621;49.576;11.024;2023-05-13T04:30:11;98512.41;;;10.67;71.74
72587;BME280;60621;49.576;11.024;2023-05-13T04:31:13;98514.00;;;10.71;71.93
72587;BME280;60621;49.576;11.024;2023-05-13T04:32:15;98504.66;;;10.77;71.61
72587;BME280;60621;49.576;11.024;2023-05-13T04:33:22;98509.69;;;10.83;71.51
72587;BME280;60621;49.576;11.024;2023-05-13T04:34:23;98510.47;;;10.87;71.88
72587;BME280;60621;49.576;11.024;2023-05-13T04:35:25;98512.03;;;10.88;71.50
72587;BME280;60621;49.576;11.024;2023-05-13T04:36:26;98507.97;;;10.94;71.21
72587;BME280;60621;49.576;11.024;2023-05-13T04:37:28;98518.53;;;10.94;70.99
72587;BME280;60621;49.576;11.024;2023-05-13T04:38:30;98517.78;;;10.93;71.07
72587;BME280;60621;49.576;11.024;2023-05-13T04:39:31;98523.88;;;10.97;70.72
72587;BME280;60621;49.576;11.024;2023-05-13T04:40:33;98522.84;;;11.02;70.66
72587;BME280;60621;49.576;11.024;2023-05-13T04:41:34;98516.00;;;11.01;71.34
72587;BME280;60621;49.576;11.024;2023-05-13T04:42:36;98522.06;;;11.01;71.55
72587;BME280;60621;49.576;11.024;2023-05-13T04:43:38;98524.00;;;11.05;72.03
72587;BME280;60621;49.576;11.024;2023-05-13T04:44:39;98529.34;;;11.08;72.01
72587;BME280;60621;49.576;11.024;2023-05-13T04:45:41;98528.28;;;11.13;72.25
72587;BME280;60621;49.576;11.024;2023-05-13T04:46:42;98524.53;;;11.14;72.33
72587;BME280;60621;49.576;11.024;2023-05-13T04:47:45;98526.47;;;11.17;72.03
72587;BME280;60621;49.576;11.024;2023-05-13T04:48:47;98526.88;;;11.19;71.86
72587;BME280;60621;49.576;11.024;2023-05-13T04:49:49;98532.59;;;11.21;71.60
72587;BME280;60621;49.576;11.024;2023-05-13T04:50:51;98531.53;;;11.25;71.58
72587;BME280;60621;49.576;11.024;2023-05-13T04:51:53;98534.19;;;11.25;71.33
72587;BME280;60621;49.576;11.024;2023-05-13T04:52:55;98531.94;;;11.27;71.65
72587;BME280;60621;49.576;11.024;2023-05-13T04:53:57;98534.63;;;11.31;71.58
72587;BME280;60621;49.576;11.024;2023-05-13T04:54:59;98527.53;;;11.35;71.79
72587;BME280;60621;49.576;11.024;2023-05-13T04:56:01;98525.66;;;11.36;71.15
72587;BME280;60621;49.576;11.024;2023-05-13T04:57:02;98533.97;;;11.38;71.05
72587;BME280;60621;49.576;11.024;2023-05-13T04:58:04;98530.97;;;11.39;71.23
72587;BME280;60621;49.576;11.024;2023-05-13T04:59:07;98528.75;;;11.41;71.09
72587;BME280;60621;49.576;11.024;2023-05-13T05:00:10;98536.69;;;11.41;71.37
72587;BME280;60621;49.576;11.024;2023-05-13T05:01:11;98533.69;;;11.43;71.41
72587;BME280;60621;49.576;11.024;2023-05-13T05:02:13;98524.94;;;11.39;71.93
72587;BME280;60621;49.576;11.024;2023-05-13T05:03:15;98526.81;;;11.38;72.50
72587;BME280;60621;49.576;11.024;2023-05-13T05:04:16;98533.28;;;11.41;72.13
72587;BME280;60621;49.576;11.024;2023-05-13T05:05:18;98526.94;;;11.45;72.11
72587;BME280;60621;49.576;11.024;2023-05-13T05:06:20;98521.34;;;11.50;72.09
72587;BME280;60621;49.576;11.024;2023-05-13T05:07:22;98529.34;;;11.54;71.69
72587;BME280;60621;49.576;11.024;2023-05-13T05:08:23;98522.94;;;11.55;71.64
72587;BME280;60621;49.576;11.024;2023-05-13T05:09:25;98523.75;;;11.59;71.22
72587;BME280;60621;49.576;11.024;2023-05-13T05:10:27;98520.75;;;11.61;70.80
72587;BME280;60621;49.576;11.024;2023-05-13T05:11:28;98529.84;;;11.63;70.99
72587;BME280;60621;49.576;11.024;2023-05-13T05:12:30;98521.16;;;11.63;70.41
72587;BME280;60621;49.576;11.024;2023-05-13T05:13:32;98528.00;;;11.67;70.23
72587;BME280;60621;49.576;11.024;2023-05-13T05:14:34;98530.25;;;11.65;70.36
72587;BME280;60621;49.576;11.024;2023-05-13T05:15:35;98526.09;;;11.64;70.58
72587;BME280;60621;49.576;11.024;2023-05-13T05:16:37;98529.84;;;11.63;70.86
72587;BME280;60621;49.576;11.024;2023-05-13T05:17:39;98531.72;;;11.63;70.62
72587;BME280;60621;49.576;11.024;2023-05-13T05:18:41;98528.38;;;11.66;70.06
72587;BME280;60621;49.576;11.024;2023-05-13T05:19:43;98530.31;;;11.69;70.07
72587;BME280;60621;49.576;11.024;2023-05-13T05:20:45;98528.75;;;11.68;69.72
72587;BME280;60621;49.576;11.024;2023-05-13T05:21:47;98533.41;;;11.74;69.74
72587;BME280;60621;49.576;11.024;2023-05-13T05:22:49;98533.03;;;11.76;69.75
72587;BME280;60621;49.576;11.024;2023-05-13T05:23:50;98532.34;;;11.79;69.63
72587;BME280;60621;49.576;11.024;2023-05-13T05:24:52;98536.97;;;11.82;69.16
72587;BME280;60621;49.576;11.024;2023-05-13T05:25:53;98538.47;;;11.83;68.91
72587;BME280;60621;49.576;11.024;2023-05-13T05:27:08;98538.47;;;11.83;68.44
72587;BME280;60621;49.576;11.024;2023-05-13T05:28:10;98534.75;;;11.88;68.42
72587;BME280;60621;49.576;11.024;2023-05-13T05:29:11;98541.25;;;11.94;68.61
72587;BME280;60621;49.576;11.024;2023-05-13T05:30:13;98543.59;;;11.99;68.17
72587;BME280;60621;49.576;11.024;2023-05-13T05:31:15;98543.22;;;12.00;68.59
72587;BME280;60621;49.576;11.024;2023-05-13T05:32:18;98550.06;;;12.01;68.25